Time;durP1;ratioP1;P1;durP2;ratioP2;P2;SDS_P1;SDS_P2;PMS_P1;PMS_P2;Temp;Humidity;BMP_temperature;BMP_pressure;BME280_temperature;BME280_humidity;BME280_pressure;Samples;Min_cycle;Max_cycle;Signal;HPM_P1;HPM_P2
2022/10/04 00:03:21;;;;;;;;;;;6.13;9.73;;;;;;2673216;76;22201;-93
2022/10/04 00:07:07;;;;;;;9.85;3.62;;;6.12;9.82;;;;;;2672162;76;21092;-94
2022/10/04 00:10:36;;;;;;;11.08;4.00;;;6.07;9.68;;;;;;2672848;76;22226;-94
2022/10/04 00:14:04;;;;;;;;;;;5.99;9.53;;;;;;2672918;76;22061;-94
2022/10/04 00:17:39;;;;;;;14.68;3.80;;;5.97;9.31;;;;;;2672517;76;21066;-94
2022/10/04 00:21:07;;;;;;;;;;;5.94;9.07;;;;;;2673099;76;22376;-94
2022/10/04 00:24:35;;;;;;;;;;;5.91;9.02;;;;;;2672655;76;22684;-94
2022/10/04 00:28:18;;;;;;;8.63;4.33;;;5.90;9.08;;;;;;2672557;76;21454;-94
2022/10/04 00:31:48;;;;;;;10.90;3.72;;;5.83;9.01;;;;;;2672935;76;22465;-94
2022/10/04 00:35:16;;;;;;;;;;;5.81;9.16;;;;;;2672680;76;22206;-94
2022/10/04 00:38:47;;;;;;;13.68;4.30;;;5.83;9.24;;;;;;2671912;76;21622;-94
2022/10/04 00:42:15;;;;;;;;;;;5.82;9.20;;;;;;2672527;76;22207;-93
2022/10/04 00:45:48;;;;;;;9.75;3.83;;;5.79;9.00;;;;;;2675843;76;20985;-95
2022/10/04 00:49:16;;;;;;;;;;;5.75;8.85;;;;;;2676811;76;22261;-94
2022/10/04 00:52:47;;;;;;;15.20;4.22;;;5.71;8.82;;;;;;2676384;76;21078;-94
2022/10/04 00:56:15;;;;;;;;;;;5.70;8.82;;;;;;2674906;76;22701;-93
2022/10/04 00:59:45;;;;;;;9.15;3.40;;;5.71;8.90;;;;;;2672922;76;21244;-94
2022/10/04 01:03:13;;;;;;;;;;;5.68;8.73;;;;;;2674949;76;22196;-95
2022/10/04 01:06:42;;;;;;;7.75;3.80;;;5.63;8.63;;;;;;2675214;76;21084;-94
2022/10/04 01:10:11;;;;;;;;;;;5.63;8.56;;;;;;2674466;76;22085;-94
2022/10/04 01:13:41;;;;;;;11.20;3.72;;;5.62;8.48;;;;;;2675111;76;20984;-94
2022/10/04 01:17:09;;;;;;;;;;;5.56;8.30;;;;;;2674723;76;22171;-93
2022/10/04 01:20:39;;;;;;;15.48;4.80;;;5.52;8.22;;;;;;2674425;76;20987;-94
2022/10/04 01:24:08;;;;;;;;;;;5.50;8.21;;;;;;2675742;76;22239;-94
2022/10/04 01:27:41;;;;;;;42.43;5.53;;;5.48;8.13;;;;;;2674905;76;21090;-94
2022/10/04 01:31:09;;;;;;;;;;;5.42;8.21;;;;;;2674817;76;22092;-94
2022/10/04 01:34:40;;;;;;;12.63;3.67;;;5.39;8.31;;;;;;2672465;76;21069;-94
2022/10/04 01:38:10;;;;;;;;;;;5.39;8.35;;;;;;2672537;76;22248;-94
2022/10/04 01:41:43;;;;;;;5.75;3.17;;;5.37;8.36;;;;;;2672235;76;20976;-94
2022/10/04 01:45:11;;;;;;;;;;;5.30;8.15;;;;;;2673243;76;22182;-94
2022/10/04 01:48:42;;;;;;;14.25;4.20;;;5.30;8.15;;;;;;2673973;76;21102;-94
2022/10/04 01:52:11;;;;;;;;;;;5.26;8.13;;;;;;2673718;76;22079;-94
2022/10/04 01:55:41;;;;;;;13.58;4.08;;;5.28;8.04;;;;;;2672858;76;20962;-94
2022/10/04 01:59:09;;;;;;;;;;;5.26;7.97;;;;;;2673617;76;22245;-95
2022/10/04 02:02:56;;;;;;;8.85;3.65;;;5.20;7.89;;;;;;2673042;76;21051;-94
2022/10/04 02:06:25;;;;;;;11.28;4.10;;;5.16;7.82;;;;;;2673298;76;22219;-91
2022/10/04 02:09:53;;;;;;;;;;;5.12;7.88;;;;;;2673277;76;22223;-92
2022/10/04 02:13:23;;;;;;;5.90;3.35;;;5.12;8.07;;;;;;2672862;76;21089;-91
2022/10/04 02:16:52;;;;;;;;;;;5.15;8.27;;;;;;2672921;76;22132;-91
2022/10/04 02:20:23;;;;;;;14.87;5.65;;;5.10;8.18;;;;;;2671827;76;21128;-91
2022/10/04 02:23:51;;;;;;;;;;;5.10;8.14;;;;;;2672691;76;22211;-92
2022/10/04 02:27:20;;;;;;;7.42;3.77;;;5.08;7.92;;;;;;2672452;76;21072;-91
2022/10/04 02:32:56;;;;;;;;;;;5.04;7.82;;;;;;2672698;76;22582;-91
2022/10/04 02:34:18;;;;;;;6.50;3.47;;;4.98;7.88;;;;;;2672649;76;21125;-91
2022/10/04 02:37:47;;;;;;;;;;;4.97;8.09;;;;;;2672742;76;22183;-91
2022/10/04 02:41:20;;;;;;;6.47;3.77;;;5.00;8.19;;;;;;2671810;76;21107;-91
2022/10/04 02:44:53;;;;;;;14.90;3.80;;;4.94;8.08;;;;;;2672823;76;22147;-92
2022/10/04 02:48:21;;;;;;;;;;;4.92;7.96;;;;;;2672877;76;22171;-93
2022/10/04 02:51:52;;;;;;;11.40;3.85;;;4.90;8.02;;;;;;2672187;76;21073;-93
2022/10/04 02:55:20;;;;;;;;;;;4.87;8.14;;;;;;2672735;76;22228;-92
2022/10/04 02:58:49;;;;;;;14.10;4.65;;;4.88;7.95;;;;;;2672771;76;21093;-93
2022/10/04 03:02:17;;;;;;;;;;;4.87;7.85;;;;;;2671887;76;22083;-93
2022/10/04 03:05:57;;;;;;;14.58;4.40;;;4.84;7.70;;;;;;2671835;76;21107;-93
2022/10/04 03:09:26;;;;;;;13.43;3.83;;;4.79;7.77;;;;;;2671247;76;22824;-93
2022/10/04 03:12:54;;;;;;;;;;;4.78;7.92;;;;;;2671946;76;22283;-93
2022/10/04 03:16:24;;;;;;;11.65;4.47;;;4.75;7.86;;;;;;2671489;76;21631;-93
2022/10/04 03:19:52;;;;;;;;;;;4.77;7.81;;;;;;2672687;76;23058;-93
2022/10/04 03:23:20;;;;;;;11.08;3.75;;;4.76;7.87;;;;;;2672210;76;21418;-93
2022/10/04 03:26:49;;;;;;;;;;;4.73;7.76;;;;;;2672301;76;22197;-93
2022/10/04 03:30:23;;;;;;;7.10;3.17;;;4.73;7.65;;;;;;2672270;76;21125;-93
2022/10/04 03:33:48;;;;;;;;;;;4.69;7.77;;;;;;2672206;76;22243;-92
2022/10/04 03:37:20;;;;;;;16.82;5.00;;;4.71;8.06;;;;;;2672027;76;21109;-93
2022/10/04 03:40:50;;;;;;;;;;;4.73;8.28;;;;;;2672836;76;22083;-93
2022/10/04 03:44:20;;;;;;;;;;;4.69;8.28;;;;;;2673998;76;20984;-92
2022/10/04 03:47:50;;;;;;;8.68;3.58;;;4.68;8.15;;;;;;2673532;76;21456;-93
2022/10/04 03:51:18;;;;;;;;;;;4.64;8.10;;;;;;2674099;76;22199;-93
2022/10/04 03:54:48;;;;;;;12.63;4.70;;;4.64;8.17;;;;;;2673865;76;21074;-94
2022/10/04 03:58:16;;;;;;;;;;;4.66;8.20;;;;;;2674919;76;22691;-92
2022/10/04 04:01:50;;;;;;;14.45;4.40;;;4.67;8.31;;;;;;2671506;76;21541;-90
2022/10/04 04:05:18;;;;;;;;;;;4.68;8.33;;;;;;2673130;76;22095;-93
2022/10/04 04:12:34;;;;;;;15.68;5.62;;;4.61;7.98;;;;;;2670864;76;23060;-92
2022/10/04 04:16:02;;;;;;;;;;;4.53;7.75;;;;;;2670833;76;22773;-92
2022/10/04 04:19:31;;;;;;;16.40;5.15;;;4.50;7.82;;;;;;2671323;76;21590;-92
2022/10/04 04:22:59;;;;;;;;;;;4.49;7.92;;;;;;2672957;76;22173;-92
2022/10/04 04:26:35;;;;;;;12.50;4.87;;;4.46;7.94;;;;;;2672161;76;21111;-92
2022/10/04 04:30:06;;;;;;;7.90;3.65;;;4.43;7.79;;;;;;2672475;76;22229;-89
2022/10/04 04:33:34;;;;;;;;;;;4.39;7.82;;;;;;2672619;76;22222;-91
2022/10/04 04:37:04;;;;;;;11.05;4.22;;;4.42;8.02;;;;;;2671914;76;21128;-92
2022/10/04 04:40:33;;;;;;;;;;;4.39;7.91;;;;;;2672153;76;22267;-92
2022/10/04 04:44:02;;;;;;;10.72;4.28;;;4.38;7.69;;;;;;2672227;76;21087;-92
2022/10/04 04:47:36;;;;;;;;;;;4.34;7.67;;;;;;2672241;76;22194;-92
2022/10/04 04:51:01;;;;;;;11.35;4.58;;;4.36;7.77;;;;;;2672196;76;21147;-92
2022/10/04 04:54:29;;;;;;;;;;;4.34;7.74;;;;;;2671343;76;22238;-92
2022/10/04 04:57:59;;;;;;;9.60;3.70;;;4.35;7.63;;;;;;2670605;76;21102;-92
2022/10/04 05:01:27;;;;;;;;;;;4.32;7.80;;;;;;2670249;76;22198;-92
2022/10/04 05:05:14;;;;;;;13.15;5.22;;;4.33;7.98;;;;;;2670494;76;21049;-93
2022/10/04 05:08:44;;;;;;;15.88;6.60;;;4.32;7.98;;;;;;2670550;76;22071;-92
2022/10/04 05:12:12;;;;;;;;;;;4.46;8.37;;;;;;2671249;76;22120;-93
2022/10/04 05:15:42;;;;;;;18.27;5.08;;;4.56;8.94;;;;;;2670691;76;20968;-92
2022/10/04 05:19:10;;;;;;;;;;;4.75;9.54;;;;;;2672217;76;22229;-93
2022/10/04 05:22:40;;;;;;;15.25;5.53;;;4.90;9.88;;;;;;2671005;76;21096;-90
2022/10/04 05:26:08;;;;;;;;;;;5.00;10.08;;;;;;2676616;76;22757;-95
2022/10/04 05:29:43;;;;;;;13.65;6.37;;;5.10;10.35;;;;;;2679985;76;21504;-94
2022/10/04 05:33:12;;;;;;;;;;;5.25;10.79;;;;;;2671942;76;22530;-91
2022/10/04 05:36:42;;;;;;;12.98;7.10;;;5.47;11.40;;;;;;2671309;76;21618;-92
2022/10/04 05:40:10;;;;;;;;;;;5.70;12.03;;;;;;2671344;76;22242;-92
2022/10/04 05:43:46;;;;;;;14.70;6.30;;;5.91;12.36;;;;;;2671527;76;21221;-91
2022/10/04 05:50:56;;;;;;;16.23;6.87;;;6.38;12.93;;;;;;2671771;76;22820;-92
2022/10/04 05:54:25;;;;;;;;;;;6.57;13.07;;;;;;2672228;76;22336;-92
2022/10/04 05:57:55;;;;;;;14.83;6.60;;;6.79;13.49;;;;;;2671526;76;21647;-91
2022/10/04 06:01:24;;;;;;;;;;;6.96;13.56;;;;;;2672063;76;22348;-92
2022/10/04 06:08:35;;;;;;;27.02;6.53;;;7.30;13.87;;;;;;2671893;76;22346;-91
2022/10/04 06:12:03;;;;;;;;;;;7.56;14.16;;;;;;2671707;76;22144;-91
2022/10/04 06:15:46;;;;;;;16.80;7.62;;;7.65;14.07;;;;;;2671494;76;20990;-91
2022/10/04 06:19:22;;;;;;;15.05;8.25;;;7.64;13.79;;;;;;2671965;76;22346;-91
2022/10/04 06:22:56;;;;;;;20.60;7.45;;;7.65;13.68;;;;;;2671967;76;22337;-92
2022/10/04 06:26:25;;;;;;;;;;;7.70;13.62;;;;;;2672496;76;22290;-91
2022/10/04 06:29:58;;;;;;;26.75;7.80;;;7.77;13.89;;;;;;2671648;76;21119;-91
2022/10/04 06:33:27;;;;;;;;;;;7.93;14.33;;;;;;2671998;76;22697;-91
2022/10/04 06:36:56;;;;;;;;;;;8.15;14.71;;;;;;2671960;76;21528;-91
2022/10/04 06:44:08;;;;;;;16.57;5.28;;;8.59;15.13;;;;;;2672654;76;22459;-91
2022/10/04 06:47:36;;;;;;;;;;;8.89;15.33;;;;;;2672052;76;22263;-91
2022/10/04 06:51:15;;;;;;;13.70;5.25;;;9.07;14.97;;;;;;2671539;76;21698;-91
2022/10/04 06:54:52;;;;;;;20.33;7.63;;;9.41;15.36;;;;;;2671896;76;22255;-91
2022/10/04 06:58:23;;;;;;;20.25;7.70;;;9.75;15.40;;;;;;2672659;76;22281;-91
2022/10/04 07:01:51;;;;;;;;;;;10.04;15.62;;;;;;2673257;76;22156;-91
2022/10/04 07:05:29;;;;;;;36.68;7.00;;;10.27;15.43;;;;;;2671411;76;21090;-91
2022/10/04 07:08:58;;;;;;;;;;;10.29;15.42;;;;;;2672558;76;22674;-91
2022/10/04 07:12:24;;;;;;;;;;;10.39;15.58;;;;;;2672904;76;22495;-91
2022/10/04 07:16:07;;;;;;;21.20;5.22;;;10.48;15.45;;;;;;2671266;76;21089;-91
2022/10/04 07:19:40;;;;;;;34.27;6.25;;;10.70;15.92;;;;;;2672339;76;22266;-91
2022/10/04 07:23:08;;;;;;;;;;;10.79;15.74;;;;;;2672769;76;22306;-91
2022/10/04 07:26:39;;;;;;;20.88;5.97;;;10.87;15.61;;;;;;2672140;76;21107;-90
2022/10/04 07:30:07;;;;;;;;;;;11.07;16.09;;;;;;2672117;76;22779;-91
2022/10/04 07:33:37;;;;;;;20.10;5.15;;;11.44;16.45;;;;;;2671076;76;21125;-91
2022/10/04 07:37:05;;;;;;;;;;;11.58;16.19;;;;;;2670866;76;22295;-90
2022/10/04 07:40:36;;;;;;;13.98;5.33;;;11.67;16.04;;;;;;2671500;76;21569;-90
2022/10/04 07:44:04;;;;;;;;;;;11.67;15.74;;;;;;2671999;76;22743;-91
2022/10/04 07:47:33;;;;;;;14.87;5.00;;;11.59;15.91;;;;;;2670988;76;20992;-91
2022/10/04 07:51:01;;;;;;;;;;;11.56;16.07;;;;;;2671422;76;22334;-90
2022/10/04 07:54:41;;;;;;;14.10;4.87;;;11.52;16.27;;;;;;2671413;76;21119;-91
2022/10/04 07:58:12;;;;;;;16.77;5.30;;;11.45;16.43;;;;;;2672025;76;22144;-91
2022/10/04 08:01:41;;;;;;;;;;;11.47;16.68;;;;;;2672207;76;22872;-91
2022/10/04 08:05:17;;;;;;;12.33;5.37;;;11.54;16.80;;;;;;2671789;76;21088;-91
2022/10/04 08:08:57;;;;;;;12.35;5.15;;;11.73;16.95;;;;;;2672002;76;22314;-90
2022/10/04 08:12:49;;;;;;;19.55;4.40;;;11.91;16.86;;;;;;2671986;76;22758;-90
2022/10/04 08:16:20;;;;;;;10.85;5.35;;;12.20;17.12;;;;;;2671716;76;22292;-88
2022/10/04 08:19:48;;;;;;;;;;;12.53;17.28;;;;;;2671278;76;22288;-88
2022/10/04 08:23:18;;;;;;;21.50;5.10;;;12.86;16.84;;;;;;2671575;76;20988;-88
2022/10/04 08:26:46;;;;;;;;;;;13.01;16.66;;;;;;2672615;76;22275;-88
2022/10/04 08:30:17;;;;;;;12.45;4.62;;;13.10;16.52;;;;;;2671591;76;21116;-88
2022/10/04 08:33:45;;;;;;;;;;;13.19;16.77;;;;;;2672451;76;22301;-88
2022/10/04 08:37:15;;;;;;;9.83;4.40;;;13.34;16.70;;;;;;2670991;76;21032;-88
2022/10/04 08:40:44;;;;;;;;;;;13.50;16.54;;;;;;2672844;76;22310;-88
2022/10/04 08:44:23;;;;;;;13.68;4.75;;;13.67;16.51;;;;;;2672155;76;21095;-87
2022/10/04 08:47:56;;;;;;;9.40;4.70;;;13.99;16.48;;;;;;2672377;76;22291;-88
2022/10/04 08:51:25;;;;;;;;;;;14.44;16.03;;;;;;2672075;76;22303;-88
2022/10/04 08:55:01;;;;;;;12.00;4.55;;;15.04;16.08;;;;;;2672147;76;21584;-88
2022/10/04 08:58:39;;;;;;;9.85;3.65;;;15.23;15.00;;;;;;2672618;76;22149;-88
2022/10/04 09:02:13;;;;;;;5.80;3.80;;;15.12;14.35;;;;;;2671855;76;22303;-88
2022/10/04 09:05:41;;;;;;;;;;;15.18;13.84;;;;;;2671972;76;22312;-88
2022/10/04 09:09:28;;;;;;;8.88;2.90;;;15.55;14.65;;;;;;2671563;76;21121;-88
2022/10/04 09:13:16;;;;;;;13.60;3.08;;;15.82;14.36;;;;;;2671945;76;22230;-88
2022/10/04 09:16:46;;;;;;;7.60;2.37;;;15.77;13.58;;;;;;2671868;76;22201;-88
2022/10/04 09:20:19;;;;;;;;;;;15.91;14.39;;;;;;2672267;76;22254;-88
2022/10/04 09:23:59;;;;;;;6.40;2.12;;;16.05;13.64;;;;;;2671317;76;21658;-88
2022/10/04 09:27:35;;;;;;;3.45;1.80;;;16.18;13.80;;;;;;2671403;76;22310;-88
2022/10/04 09:31:14;;;;;;;5.80;2.90;;;16.21;13.52;;;;;;2671650;76;22318;-88
2022/10/04 09:34:54;;;;;;;7.97;2.73;;;16.30;12.98;;;;;;2672052;76;22144;-87
2022/10/04 09:38:25;;;;;;;5.67;2.47;;;16.29;11.94;;;;;;2671026;76;22277;-88
2022/10/04 09:41:53;;;;;;;;;;;16.31;11.95;;;;;;2671387;76;22312;-88
2022/10/04 09:45:27;;;;;;;7.17;2.20;;;16.31;10.91;;;;;;2671141;76;21243;-88
2022/10/04 09:48:55;;;;;;;;;;;16.62;13.17;;;;;;2672233;76;22649;-88
2022/10/04 09:52:25;;;;;;;3.52;1.65;;;16.57;10.98;;;;;;2672088;76;21128;-88
2022/10/04 09:55:54;;;;;;;;;;;16.60;11.16;;;;;;2671988;76;22194;-88
2022/10/04 09:59:41;;;;;;;6.87;2.12;;;16.64;11.30;;;;;;2671858;76;21157;-87
2022/10/04 10:07:05;;;;;;;5.42;2.27;;;17.23;12.04;;;;;;2672118;76;22227;-89
2022/10/04 10:14:36;;;;;;;5.58;2.20;;;17.31;11.48;;;;;;2672345;76;23092;-92
2022/10/04 10:18:13;;;;;;;5.50;2.20;;;17.14;10.54;;;;;;2671928;76;22220;-92
2022/10/04 10:21:40;;;;;;;;;;;17.00;11.93;;;;;;2671912;76;22378;-91
2022/10/04 10:25:08;;;;;;;;;;;16.90;11.02;;;;;;2672172;76;22361;-91
2022/10/04 10:28:38;;;;;;;4.62;2.00;;;16.84;10.70;;;;;;2671548;76;21625;-91
2022/10/04 10:32:07;;;;;;;;;;;17.01;12.15;;;;;;2672525;76;22354;-90
2022/10/04 10:35:37;;;;;;;3.62;1.87;;;17.09;11.93;;;;;;2671780;76;21098;-90
2022/10/04 10:39:05;;;;;;;;;;;17.16;12.22;;;;;;2672990;76;22323;-92
2022/10/04 10:42:45;;;;;;;4.25;1.92;;;17.36;12.77;;;;;;2671627;76;21016;-92
2022/10/04 10:46:19;;;;;;;8.43;2.03;;;17.38;10.31;;;;;;2671139;76;22320;-91
2022/10/04 10:49:47;;;;;;;;;;;17.46;11.08;;;;;;2672736;76;22905;-91
2022/10/04 10:53:19;;;;;;;11.22;2.12;;;17.73;11.64;;;;;;2672449;76;21156;-91
2022/10/04 10:56:47;;;;;;;;;;;17.97;11.44;;;;;;2672270;76;22317;-91
2022/10/04 11:00:21;;;;;;;4.95;2.22;;;17.97;10.78;;;;;;2672087;76;21142;-90
2022/10/04 11:03:49;;;;;;;;;;;18.17;9.60;;;;;;2673587;76;22191;-91
2022/10/04 11:07:36;;;;;;;6.58;2.05;;;18.36;10.21;;;;;;2672564;76;21164;-91
2022/10/04 11:11:23;;;;;;;5.65;2.05;;;18.36;9.92;;;;;;2672874;76;22298;-91
2022/10/04 11:14:54;;;;;;;8.23;1.70;;;18.36;9.28;;;;;;2671471;76;22353;-90
2022/10/04 11:18:22;;;;;;;;;;;18.43;10.17;;;;;;2672647;76;22716;-91
2022/10/04 11:22:12;;;;;;;5.45;1.92;;;18.44;9.56;;;;;;2672131;76;21135;-90
2022/10/04 11:25:58;;;;;;;4.15;1.90;;;18.49;10.30;;;;;;2672472;76;22346;-91
2022/10/04 11:29:32;;;;;;;8.30;2.15;;;18.66;8.31;;;;;;2672463;76;22335;-90
2022/10/04 11:33:01;;;;;;;;;;;18.86;8.46;;;;;;2672609;76;22355;-92
2022/10/04 11:36:49;;;;;;;6.42;1.90;;;18.81;7.22;;;;;;2672340;76;21088;-92
2022/10/04 11:40:20;;;;;;;7.40;2.00;;;18.70;7.33;;;;;;2672110;76;22323;-91
2022/10/04 11:43:49;;;;;;;;;;;18.69;7.44;;;;;;2673323;76;22343;-91
2022/10/04 11:47:38;;;;;;;4.28;1.35;;;18.73;7.40;;;;;;2671740;76;21661;-91
2022/10/04 11:51:09;;;;;;;5.10;1.55;;;18.64;6.22;;;;;;2671707;76;22780;-91
2022/10/04 11:54:38;;;;;;;;;;;18.56;5.99;;;;;;2672907;76;22317;-91
2022/10/04 11:58:17;;;;;;;6.83;1.60;;;18.77;7.13;;;;;;2672060;76;21640;-92
2022/10/04 12:02:01;;;;;;;4.57;1.70;;;18.83;6.73;;;;;;2672849;76;22291;-91
2022/10/04 12:05:35;;;;;;;7.80;1.87;;;18.73;5.78;;;;;;2672960;76;22734;-92
2022/10/04 12:09:04;;;;;;;;;;;18.61;5.45;;;;;;2673627;76;22277;-91
2022/10/04 12:12:38;;;;;;;;;;;18.64;4.93;;;;;;2673586;76;21212;-92
2022/10/04 12:16:17;;;;;;;1.82;1.42;;;18.67;5.67;;;;;;2672835;76;20839;-91
2022/10/04 12:20:00;;;;;;;4.00;1.23;;;18.77;6.73;;;;;;2673170;76;22192;-91
2022/10/04 12:23:34;;;;;;;4.67;1.47;;;18.73;5.95;;;;;;2672741;76;22262;-92
2022/10/04 12:27:02;;;;;;;;;;;18.62;5.31;;;;;;2673643;76;22291;-91
2022/10/04 12:30:33;;;;;;;5.12;1.60;;;18.64;6.34;;;;;;2672436;76;21889;-91
2022/10/04 12:34:01;;;;;;;;;;;18.61;6.45;;;;;;2672450;76;22331;-91
2022/10/04 12:37:31;;;;;;;5.35;1.60;;;18.47;4.89;;;;;;2672582;76;21255;-92
2022/10/04 12:41:00;;;;;;;;;;;18.20;5.89;;;;;;2672859;76;22934;-92
2022/10/04 12:44:39;;;;;;;3.55;1.52;;;17.96;6.31;;;;;;2673622;76;20968;-91
2022/10/04 12:48:24;;;;;;;4.60;1.90;;;17.63;6.95;;;;;;2672885;76;22218;-90
2022/10/04 12:51:55;;;;;;;3.95;1.82;;;17.36;7.79;;;;;;2672626;76;22254;-89
2022/10/04 12:55:24;;;;;;;;;;;17.09;8.14;;;;;;2673093;76;22336;-91
2022/10/04 12:59:14;;;;;;;3.60;1.60;;;16.96;7.86;;;;;;2671923;76;21562;-92
2022/10/04 13:02:47;;;;;;;7.33;1.40;;;16.84;8.64;;;;;;2670920;76;22323;-92
2022/10/04 13:06:15;;;;;;;;;;;16.78;8.35;;;;;;2673458;76;22315;-91
2022/10/04 13:09:46;;;;;;;4.85;1.32;;;16.80;8.68;;;;;;2673002;76;21014;-91
2022/10/04 13:13:14;;;;;;;;;;;16.71;8.96;;;;;;2673320;76;22269;-91
2022/10/04 13:16:51;;;;;;;3.17;1.60;;;16.60;7.85;;;;;;2672292;76;21022;-92
2022/10/04 13:20:21;;;;;;;9.50;1.80;;;16.55;8.53;;;;;;2673324;76;22348;-91
2022/10/04 13:23:49;;;;;;;;;;;16.61;9.76;;;;;;2672788;76;22893;-93
2022/10/04 13:27:27;;;;;;;10.05;2.22;;;16.66;9.53;;;;;;2670891;76;21637;-91
2022/10/04 13:30:52;;;;;;;;;;;16.71;9.66;;;;;;2671714;76;22727;-91
2022/10/04 13:34:20;;;;;;;;;;;16.76;8.30;;;;;;2673654;76;21183;-90
2022/10/04 13:38:09;;;;;;;3.37;1.22;;;16.77;8.86;;;;;;2673931;76;20520;-91
2022/10/04 13:41:43;;;;;;;4.53;1.22;;;16.75;9.17;;;;;;2673025;76;22385;-92
2022/10/04 13:45:13;;;;;;;;;;;16.81;8.27;;;;;;2672556;76;22189;-92
2022/10/04 13:48:48;;;;;;;;;;;16.90;7.98;;;;;;2674930;76;20561;-91
2022/10/04 14:00:04;;;;;;;5.20;1.35;;;17.08;8.55;;;;;;2670784;76;22484;-88
2022/10/04 14:03:32;;;;;;;;;;;17.19;8.37;;;;;;2672223;76;22205;-89
2022/10/04 14:07:03;;;;;;;;;;;17.17;8.73;;;;;;2671945;76;20577;-91
2022/10/04 14:10:37;;;;;;;3.62;1.20;;;17.17;7.81;;;;;;2672213;76;21455;-88
2022/10/04 14:14:26;;;;;;;4.30;1.05;;;17.22;8.11;;;;;;2674069;76;22341;-91
2022/10/04 14:18:06;;;;;;;1.98;0.98;;;17.20;7.73;;;;;;2675205;76;22353;-91
2022/10/04 14:22:03;;;;;;;2.77;1.60;;;17.23;8.04;;;;;;2672373;76;22325;-93
2022/10/04 14:25:48;;;;;;;4.65;1.02;;;17.31;8.31;;;;;;2673305;76;22345;-91
2022/10/04 14:29:36;;;;;;;6.25;1.27;;;17.34;8.77;;;;;;2671890;76;22413;-89
2022/10/04 14:33:15;;;;;;;2.47;1.20;;;17.31;7.50;;;;;;2671279;76;22415;-90
2022/10/04 14:36:47;;;;;;;4.95;1.60;;;17.30;7.84;;;;;;2670373;76;22473;-88
2022/10/04 14:40:17;;;;;;;;;;;17.28;8.24;;;;;;2669307;76;22856;-89
2022/10/04 14:43:54;;;;;;;9.05;1.10;;;17.21;7.98;;;;;;2671027;76;21175;-89
2022/10/04 14:47:43;;;;;;;3.40;1.10;;;17.13;8.22;;;;;;2669211;76;22313;-88
2022/10/04 14:51:24;;;;;;;5.08;1.25;;;17.02;7.82;;;;;;2672205;76;22297;-90
2022/10/04 14:54:57;;;;;;;2.95;1.07;;;17.01;6.86;;;;;;2671124;76;22339;-89
2022/10/04 14:58:28;;;;;;;;;;;16.98;6.62;;;;;;2670547;76;22214;-89
2022/10/04 15:01:56;;;;;;;;;;;16.98;5.86;;;;;;2671211;76;20513;-89
2022/10/04 15:05:35;;;;;;;2.05;0.80;;;17.00;5.76;;;;;;2671444;76;21087;-90
2022/10/04 15:09:18;;;;;;;2.13;1.00;;;17.10;6.49;;;;;;2671372;76;22314;-90
2022/10/04 15:12:45;;;;;;;2.65;0.90;;;17.91;7.72;;;;;;2668757;76;22456;-90
2022/10/04 15:16:19;;;;;;;;;;;21.34;2.16;;;;;;2671526;76;22387;-91
2022/10/04 15:19:45;;;;;;;6.12;0.88;;;24.11;-3.78;;;;;;2670255;76;21502;-91
2022/10/04 15:23:13;;;;;;;;;;;23.20;118.15;;;;;;2667252;76;22764;-92
2022/10/04 15:26:50;;;;;;;2.12;0.90;;;23.57;-5.89;;;;;;2669776;76;21125;-89
2022/10/04 15:30:23;;;;;;;2.30;1.00;;;26.95;114.51;;;;;;2671640;76;22316;-91
2022/10/04 15:33:51;;;;;;;;;;;28.91;107.95;;;;;;2670782;76;22208;-92
2022/10/04 15:37:26;;;;;;;1.85;0.78;;;29.23;105.92;;;;;;2672429;76;21120;-92
2022/10/04 15:40:54;;;;;;;;;;;28.16;105.07;;;;;;2671208;76;22295;-92
2022/10/04 15:44:23;;;;;;;;;;;22.33;115.19;;;;;;2671570;76;22345;-91
2022/10/04 15:48:10;;;;;;;7.10;1.35;;;19.85;-3.02;;;;;;2671367;76;21112;-92
2022/10/04 15:51:58;;;;;;;2.58;1.22;;;18.39;0.53;;;;;;2670758;76;22737;-90
2022/10/04 15:55:38;;;;;;;4.25;1.60;;;17.51;2.37;;;;;;2670615;76;22277;-91
2022/10/04 15:59:17;;;;;;;5.23;1.27;;;16.82;3.96;;;;;;2670974;76;22317;-91
2022/10/04 16:02:52;;;;;;;7.60;1.60;;;16.36;5.09;;;;;;2670833;76;22331;-91
2022/10/04 16:06:20;;;;;;;;;;;15.98;5.84;;;;;;2672016;76;22677;-91
2022/10/04 16:09:48;;;;;;;;;;;15.73;6.71;;;;;;2672231;76;22411;-91
2022/10/04 16:13:19;;;;;;;4.72;1.75;;;15.44;7.40;;;;;;2670985;76;21168;-88
2022/10/04 16:16:47;;;;;;;;;;;15.22;8.29;;;;;;2671680;76;22787;-88
2022/10/04 16:20:21;;;;;;;10.20;5.45;;;15.02;8.97;;;;;;2672114;76;21505;-88
2022/10/04 16:23:49;;;;;;;;;;;14.75;9.55;;;;;;2671943;76;22196;-88
2022/10/04 16:27:36;;;;;;;4.10;1.77;;;14.53;10.08;;;;;;2670814;76;21156;-88
2022/10/04 16:31:23;;;;;;;9.03;2.50;;;14.30;10.78;;;;;;2671219;76;22819;-88
2022/10/04 16:35:00;;;;;;;8.45;2.15;;;14.08;11.33;;;;;;2672081;76;22694;-88
2022/10/04 16:38:30;;;;;;;4.40;2.00;;;13.88;11.61;;;;;;2671574;76;22880;-88
2022/10/04 16:41:58;;;;;;;;;;;13.67;12.05;;;;;;2671962;76;24084;-89
2022/10/04 16:45:45;;;;;;;4.15;2.10;;;13.56;12.44;;;;;;2672027;76;21115;-88
2022/10/04 16:49:22;;;;;;;5.70;1.90;;;13.38;12.91;;;;;;2671018;76;22299;-88
2022/10/04 16:53:05;;;;;;;14.15;2.45;;;13.22;13.28;;;;;;2671754;76;22708;-88
2022/10/04 16:56:59;;;;;;;6.83;2.45;;;13.07;13.58;;;;;;2671975;76;22177;-89
2022/10/04 17:00:34;;;;;;;5.17;2.37;;;12.84;13.85;;;;;;2671265;76;22299;-88
2022/10/04 17:04:21;;;;;;;5.10;2.40;;;12.67;13.80;;;;;;2670035;76;22272;-88
2022/10/04 17:08:04;;;;;;;10.40;2.80;;;12.51;13.87;;;;;;2669174;76;22307;-88
2022/10/04 17:11:46;;;;;;;6.67;2.77;;;12.37;13.69;;;;;;2670494;76;22296;-89
2022/10/04 17:15:17;;;;;;;6.42;3.15;;;12.25;13.68;;;;;;2670140;76;22321;-88
2022/10/04 17:18:45;;;;;;;;;;;12.14;13.80;;;;;;2670990;76;22310;-88
2022/10/04 17:22:22;;;;;;;8.68;3.20;;;12.06;13.97;;;;;;2670490;76;21122;-88
2022/10/04 17:26:04;;;;;;;6.45;3.05;;;11.94;14.13;;;;;;2669557;76;22316;-88
2022/10/04 17:29:38;;;;;;;6.83;3.27;;;11.84;14.13;;;;;;2671333;76;22347;-88
2022/10/04 17:33:06;;;;;;;;;;;11.75;14.06;;;;;;2670244;76;22546;-88
2022/10/04 17:36:37;;;;;;;11.90;4.17;;;11.64;14.17;;;;;;2670448;76;21020;-89
2022/10/04 17:40:05;;;;;;;;;;;11.60;14.96;;;;;;2671374;76;22306;-89
2022/10/04 17:43:36;;;;;;;8.70;3.15;;;11.53;15.45;;;;;;2670015;76;21625;-88
2022/10/04 17:47:04;;;;;;;;;;;11.51;16.22;;;;;;2671105;76;22267;-88
2022/10/04 17:58:32;;;;;;;11.70;3.20;;;11.20;15.48;;;;;;2669483;76;22557;-88
2022/10/04 18:02:00;;;;;;;;;;;11.13;15.14;;;;;;2670329;76;22329;-88
2022/10/04 18:05:36;;;;;;;13.22;3.95;;;11.05;15.01;;;;;;2670125;76;21120;-89
2022/10/04 18:09:10;;;;;;;10.90;4.30;;;10.99;15.03;;;;;;2671480;76;22283;-88
2022/10/04 18:12:59;;;;;;;14.30;5.50;;;10.88;14.89;;;;;;2670397;76;22289;-88
2022/10/04 18:16:46;;;;;;;20.62;5.92;;;10.80;14.81;;;;;;2670087;76;22302;-88
2022/10/04 18:20:19;;;;;;;10.72;5.05;;;10.69;14.77;;;;;;2670550;76;22320;-88
2022/10/04 18:23:48;;;;;;;;;;;10.63;14.81;;;;;;2670813;76;22304;-88
2022/10/04 18:27:24;;;;;;;14.65;4.67;;;10.59;14.74;;;;;;2669848;76;21198;-88
2022/10/04 18:31:02;;;;;;;12.80;4.15;;;10.55;14.67;;;;;;2670984;76;22334;-88
2022/10/04 18:34:27;;;;;;;;;;;10.44;14.68;;;;;;2670508;76;22321;-86
2022/10/04 18:37:55;;;;;;;;;;;10.41;14.73;;;;;;2671189;76;22764;-88
2022/10/04 18:41:50;;;;;;;8.48;3.52;;;10.39;14.72;;;;;;2668301;76;21175;-87
2022/10/04 18:44:55;;;;;;;;;;;10.37;14.69;;;;;;2666525;76;22299;-88
2022/10/04 18:48:25;;;;;;;17.00;3.58;;;10.31;14.56;;;;;;2667209;76;21239;-88
2022/10/04 18:51:53;;;;;;;;;;;10.26;14.55;;;;;;2670045;76;23003;-88
2022/10/04 18:55:27;;;;;;;10.10;3.15;;;10.21;14.47;;;;;;2667994;76;21161;-88
2022/10/04 19:02:51;;;;;;;13.98;4.60;;;10.07;14.52;;;;;;2668377;76;20961;-89
2022/10/04 19:06:25;;;;;;;8.90;3.40;;;10.00;14.42;;;;;;2668260;76;22789;-88
2022/10/04 19:09:52;;;;;;;;;;;9.99;14.26;;;;;;2666661;76;22174;-88
2022/10/04 19:13:28;;;;;;;13.55;4.40;;;9.92;14.07;;;;;;2667395;76;21111;-88
2022/10/04 19:17:00;;;;;;;9.65;3.60;;;9.86;13.84;;;;;;2668082;76;23226;-87
2022/10/04 19:20:28;;;;;;;;;;;9.81;13.75;;;;;;2668802;76;22232;-88
2022/10/04 19:23:59;;;;;;;9.00;3.77;;;9.76;13.64;;;;;;2666393;76;21097;-87
2022/10/04 19:27:27;;;;;;;;;;;9.67;13.56;;;;;;2667334;76;22182;-88
2022/10/04 19:31:06;;;;;;;13.48;4.33;;;9.66;13.81;;;;;;2667518;76;21062;-89
2022/10/04 19:34:47;;;;;;;20.50;4.10;;;9.59;13.77;;;;;;2669719;76;22541;-91
2022/10/04 19:38:33;;;;;;;9.00;3.20;;;9.53;13.90;;;;;;2670643;76;22389;-92
2022/10/04 19:42:12;;;;;;;17.90;5.62;;;9.48;13.83;;;;;;2669153;76;22301;-92
2022/10/04 19:45:41;;;;;;;;;;;9.45;13.89;;;;;;2670537;76;22337;-92
2022/10/04 19:49:10;;;;;;;;;;;9.44;13.76;;;;;;2670897;76;20462;-91
2022/10/04 19:52:52;;;;;;;10.30;4.70;;;9.40;13.70;;;;;;2670117;76;20786;-91
2022/10/04 19:56:25;;;;;;;11.08;5.20;;;9.36;13.68;;;;;;2671173;76;22308;-91
2022/10/04 19:59:52;;;;;;;;;;;9.32;13.65;;;;;;2671164;76;22337;-91
2022/10/04 20:03:21;;;;;;;13.13;4.87;;;9.30;13.79;;;;;;2670454;76;21127;-92
2022/10/04 20:06:49;;;;;;;;;;;9.25;13.71;;;;;;2671261;76;22348;-92
2022/10/04 20:10:38;;;;;;;19.07;5.90;;;9.24;13.78;;;;;;2670415;76;21125;-92